Rugby, Tennessee
Current Conditions -  °F | °C
As of 2:56 PM on Wednesday 17 Dec 2014 (Local Time) from KEKQ Reporting Station
Few Clouds Few Clouds  
Wind Chill: 39°   Ceiling: Unl
Heat Index: 39°   Visibility: 10mi
Dew Point: 30°   Wind: 3mph
Humidity: 71%   Direction: 270°W
Pressure: 30.24"   Gusts: NA
Location:  36.36°N, 84.7°W
Report Text: KEKQ 171956Z AUTO 27003KT 10SM FEW021 04/M01 A3024 RMK AO2 T00381011 SLP247
Loading
Personal Weather Stations






























Interactive Weather Map New forecast layout! Learn more

10-Day Weather Forecast

Advertisements
Track Severe Weather on mobile